createdAt,value
2018-12-27T00:02:04.686Z,99253.50
2018-12-27T00:04:37.004Z,99251.48
2018-12-27T00:07:09.378Z,99251.66
2018-12-27T00:09:41.700Z,99243.09
2018-12-27T00:12:14.063Z,99243.91
2018-12-27T00:14:46.388Z,99240.89
2018-12-27T00:17:18.758Z,99239.87
2018-12-27T00:19:51.183Z,99232.80
2018-12-27T00:22:23.557Z,99226.66
2018-12-27T00:24:55.872Z,99223.33
2018-12-27T00:27:28.249Z,99223.97
2018-12-27T00:30:02.931Z,99223.94
2018-12-27T00:32:35.540Z,99221.75
2018-12-27T00:35:08.095Z,99218.68
2018-12-27T00:37:40.851Z,99214.77
2018-12-27T00:40:13.542Z,99211.25
2018-12-27T00:42:46.285Z,99213.92
2018-12-27T00:45:18.888Z,99209.88
2018-12-27T00:47:51.481Z,99206.96
2018-12-27T00:50:24.039Z,99205.91
2018-12-27T00:52:56.634Z,99206.50
2018-12-27T00:55:29.200Z,99203.20
2018-12-27T00:58:01.806Z,99204.01
2018-12-27T01:00:34.362Z,99204.35
2018-12-27T01:03:11.059Z,99204.01
2018-12-27T01:05:41.137Z,99205.78
2018-12-27T01:08:13.735Z,99206.89
2018-12-27T01:10:46.292Z,99209.17
2018-12-27T01:13:18.885Z,99207.39
2018-12-27T01:15:51.318Z,99208.00
2018-12-27T01:18:23.768Z,99204.22
2018-12-27T01:20:56.288Z,99201.28
2018-12-27T01:23:28.902Z,99202.52
2018-12-27T01:26:01.461Z,99204.47
2018-12-27T01:28:34.062Z,99215.24
2018-12-27T01:31:06.620Z,99212.62
2018-12-27T01:33:39.207Z,99214.27
2018-12-27T01:36:11.757Z,99213.34
2018-12-27T01:38:44.232Z,99210.10
2018-12-27T01:41:16.762Z,99215.14
2018-12-27T01:43:49.452Z,99207.81
2018-12-27T01:46:22.013Z,99211.69
2018-12-27T01:48:54.596Z,99210.64
2018-12-27T01:51:27.142Z,99211.08
2018-12-27T01:53:59.604Z,99210.52
2018-12-27T01:56:31.998Z,99210.73
2018-12-27T01:59:04.569Z,99210.32
2018-12-27T02:01:36.991Z,99213.61
2018-12-27T02:04:09.571Z,99214.06
2018-12-27T02:06:42.119Z,99214.87
2018-12-27T02:09:14.721Z,99214.83
2018-12-27T02:11:47.274Z,99210.55
2018-12-27T02:14:19.742Z,99207.42
2018-12-27T02:16:52.138Z,99209.81
2018-12-27T02:19:24.576Z,99210.45
2018-12-27T02:21:56.968Z,99205.50
2018-12-27T02:24:29.410Z,99213.16
2018-12-27T02:27:01.812Z,99218.97
2018-12-27T02:29:34.251Z,99208.22
2018-12-27T02:32:06.672Z,99202.87
2018-12-27T02:34:39.115Z,99202.88
2018-12-27T02:37:11.503Z,99201.27
2018-12-27T02:39:44.088Z,99197.59
2018-12-27T02:42:16.615Z,99199.13
2018-12-27T02:44:49.233Z,99195.70
2018-12-27T02:47:21.664Z,99188.08
2018-12-27T02:49:54.113Z,99187.42
2018-12-27T02:52:26.643Z,99182.64
2018-12-27T02:54:59.128Z,99172.33
2018-12-27T02:57:31.656Z,99168.02
2018-12-27T03:00:04.270Z,99164.89
2018-12-27T03:02:36.696Z,99165.75
2018-12-27T03:05:09.150Z,99167.19
2018-12-27T03:07:41.540Z,99164.56
2018-12-27T03:10:14.113Z,99168.80
2018-12-27T03:12:46.665Z,99159.22
2018-12-27T03:15:19.140Z,99155.27
2018-12-27T03:17:51.663Z,99152.48
2018-12-27T03:20:24.146Z,99155.58
2018-12-27T03:22:56.679Z,99154.73
2018-12-27T03:25:29.152Z,99152.00
2018-12-27T03:28:01.693Z,99156.38
2018-12-27T03:30:34.169Z,99156.94
2018-12-27T03:33:06.717Z,99154.96
2018-12-27T03:35:39.152Z,99152.05
2018-12-27T03:38:11.557Z,99139.64
2018-12-27T03:40:44.132Z,99141.90
2018-12-27T03:43:16.558Z,99140.69
2018-12-27T03:45:49.061Z,99137.70
2018-12-27T03:48:21.587Z,99135.34
2018-12-27T03:50:54.191Z,99134.19
2018-12-27T03:53:26.737Z,99135.43
2018-12-27T03:55:59.345Z,99128.50
2018-12-27T03:58:31.899Z,99128.28
2018-12-27T04:01:04.611Z,99122.89
2018-12-27T04:03:37.156Z,99123.63
2018-12-27T04:06:09.765Z,99120.53
2018-12-27T04:08:42.310Z,99120.27
2018-12-27T04:11:14.921Z,99113.88
2018-12-27T04:13:47.467Z,99114.30
2018-12-27T04:16:19.834Z,99112.21
2018-12-27T04:18:52.261Z,99110.91
2018-12-27T04:21:24.638Z,99111.79
2018-12-27T04:23:57.659Z,99107.87
2018-12-27T04:26:31.036Z,99107.55
2018-12-27T04:29:03.365Z,99105.09
2018-12-27T04:31:36.233Z,99107.27
2018-12-27T04:34:09.866Z,99105.78
2018-12-27T04:36:43.560Z,99104.33
2018-12-27T04:39:15.928Z,99104.76
2018-12-27T04:41:48.994Z,99107.98
2018-12-27T04:44:21.919Z,99107.86
2018-12-27T04:46:54.297Z,99101.31
2018-12-27T04:49:26.618Z,99101.52
2018-12-27T04:51:58.981Z,99094.81
2018-12-27T04:54:31.296Z,99099.81
2018-12-27T04:57:03.668Z,99098.93
2018-12-27T04:59:35.845Z,99088.98
2018-12-27T05:02:08.292Z,99080.09
2018-12-27T05:04:40.618Z,99082.22
2018-12-27T05:07:12.983Z,99086.72
2018-12-27T05:09:45.240Z,99091.03
2018-12-27T05:12:17.581Z,99103.71
2018-12-27T05:14:49.881Z,99102.78
2018-12-27T05:17:22.121Z,99099.80
2018-12-27T05:19:54.424Z,99101.22
2018-12-27T05:22:26.788Z,99102.91
2018-12-27T05:24:58.981Z,99107.50
2018-12-27T05:27:31.198Z,99105.09
2018-12-27T05:30:03.487Z,99103.11
2018-12-27T05:32:35.726Z,99100.11
2018-12-27T05:35:08.278Z,99094.21
2018-12-27T05:37:40.657Z,99097.50
2018-12-27T05:40:12.958Z,99096.32
2018-12-27T05:42:45.308Z,99090.37
2018-12-27T05:45:17.659Z,99093.09
2018-12-27T05:47:49.884Z,99093.39
2018-12-27T05:50:22.184Z,99095.98
2018-12-27T05:52:54.552Z,99096.92
2018-12-27T05:55:34.069Z,99103.34
2018-12-27T05:58:00.871Z,99096.75
2018-12-27T06:00:33.200Z,99101.73
2018-12-27T06:03:05.435Z,99102.16
2018-12-27T06:05:37.733Z,99100.69
2018-12-27T06:08:10.106Z,99096.78
2018-12-27T06:10:42.434Z,99102.34
2018-12-27T06:13:14.802Z,99098.56
2018-12-27T06:15:47.126Z,99097.94
2018-12-27T06:18:19.366Z,99095.45
2018-12-27T06:20:51.668Z,99093.94
2018-12-27T06:23:24.035Z,99094.84
2018-12-27T06:25:56.359Z,99094.13
2018-12-27T06:28:28.725Z,99086.17
2018-12-27T06:31:01.150Z,99090.23
2018-12-27T06:33:33.511Z,99091.80
2018-12-27T06:36:05.944Z,99091.27
2018-12-27T06:38:38.313Z,99094.14
2018-12-27T06:41:10.638Z,99093.16
2018-12-27T06:43:43.102Z,99096.92
2018-12-27T06:46:15.568Z,99092.43
2018-12-27T06:48:47.930Z,99091.58
2018-12-27T06:51:20.260Z,99096.09
2018-12-27T06:53:52.641Z,99096.33
2018-12-27T06:56:24.969Z,99094.92
2018-12-27T06:58:57.209Z,99091.61
2018-12-27T07:01:29.498Z,99097.53
2018-12-27T07:04:01.742Z,99093.28
2018-12-27T07:06:33.907Z,99088.03
2018-12-27T07:09:08.520Z,99091.48
2018-12-27T07:11:40.853Z,99092.76
2018-12-27T07:14:13.215Z,99086.23
2018-12-27T07:16:45.538Z,99083.19
2018-12-27T07:19:17.775Z,99078.33
2018-12-27T07:21:50.079Z,99077.49
2018-12-27T07:24:22.542Z,99082.42
2018-12-27T07:26:54.867Z,99085.91
2018-12-27T07:29:27.109Z,99084.83
2018-12-27T07:31:59.407Z,99084.55
2018-12-27T07:34:31.772Z,99087.47
2018-12-27T07:37:04.106Z,99085.17
2018-12-27T07:39:36.613Z,99085.73
2018-12-27T07:42:08.992Z,99084.63
2018-12-27T07:44:41.359Z,99082.78
2018-12-27T07:47:13.789Z,99083.69
2018-12-27T07:49:46.155Z,99085.84
2018-12-27T07:52:18.474Z,99082.70
2018-12-27T07:54:50.874Z,99085.06
2018-12-27T07:57:23.198Z,99085.50
2018-12-27T07:59:55.566Z,99085.80
2018-12-27T08:02:27.986Z,99088.28
2018-12-27T08:05:03.945Z,99085.67
2018-12-27T08:07:34.290Z,99085.77
2018-12-27T08:10:07.249Z,99087.72
2018-12-27T08:12:39.673Z,99079.66
2018-12-27T08:15:12.131Z,99076.63
2018-12-27T08:17:44.452Z,99070.94
2018-12-27T08:20:16.827Z,99071.19
2018-12-27T08:22:49.138Z,99072.39
2018-12-27T08:29:26.772Z,99057.98
2018-12-27T08:31:59.095Z,99044.56
2018-12-27T08:34:31.473Z,99030.02
2018-12-27T08:37:03.790Z,99032.37
2018-12-27T08:39:36.179Z,99030.63
2018-12-27T08:42:08.572Z,99030.00
2018-12-27T08:44:40.945Z,99028.06
2018-12-27T08:47:13.284Z,99032.97
2018-12-27T08:49:45.747Z,99032.16
2018-12-27T08:52:18.071Z,99026.57
2018-12-27T08:54:50.536Z,99031.20
2018-12-27T08:57:22.733Z,99026.88
2018-12-27T08:59:54.950Z,99037.00
2018-12-27T09:02:27.123Z,99036.98
2018-12-27T09:04:59.335Z,99048.91
2018-12-27T09:07:31.558Z,99052.47
2018-12-27T09:10:03.873Z,99052.23
2018-12-27T09:12:36.222Z,99048.44
2018-12-27T09:15:08.888Z,99048.97
2018-12-27T09:17:41.220Z,99045.29
2018-12-27T09:20:13.607Z,99039.69
2018-12-27T09:22:45.921Z,99042.47
2018-12-27T09:25:18.384Z,99046.11
2018-12-27T09:27:50.665Z,99044.95
2018-12-27T09:30:22.874Z,99042.53
2018-12-27T09:32:55.032Z,99042.97
2018-12-27T09:35:27.243Z,99043.45
2018-12-27T09:37:59.503Z,99052.00
2018-12-27T09:40:31.725Z,99039.52
2018-12-27T09:43:03.951Z,99040.19
2018-12-27T09:45:36.168Z,99037.72
2018-12-27T09:48:08.339Z,99042.88
2018-12-27T09:50:40.550Z,99034.91
2018-12-27T09:53:12.712Z,99030.28
2018-12-27T09:55:44.926Z,99032.48
2018-12-27T09:58:17.088Z,99028.41
2018-12-27T10:00:49.296Z,99032.28
2018-12-27T10:03:21.463Z,99027.02
2018-12-27T10:05:53.676Z,99023.95
2018-12-27T10:08:25.842Z,99023.77
2018-12-27T10:10:58.059Z,99017.27
2018-12-27T10:13:30.238Z,99011.96
2018-12-27T10:16:02.450Z,99017.64
2018-12-27T10:18:34.719Z,99013.81
2018-12-27T10:21:06.924Z,99015.88
2018-12-27T10:23:39.096Z,99009.73
2018-12-27T10:26:11.313Z,99005.12
2018-12-27T10:28:43.490Z,98999.11
2018-12-27T10:31:15.695Z,99002.09
2018-12-27T10:33:47.863Z,99002.52
2018-12-27T10:36:20.080Z,98997.39
2018-12-27T10:38:52.532Z,98993.52
2018-12-27T10:41:24.897Z,98990.93
2018-12-27T10:43:57.247Z,98983.41
2018-12-27T10:46:29.524Z,98982.41
2018-12-27T10:49:01.686Z,98974.52
2018-12-27T10:51:33.996Z,98969.80
2018-12-27T10:54:06.268Z,98968.39
2018-12-27T10:56:38.502Z,98961.32
2018-12-27T10:59:10.666Z,98961.92
2018-12-27T11:01:42.982Z,98961.16
2018-12-27T11:04:15.144Z,98948.80
2018-12-27T11:06:47.471Z,98948.71
2018-12-27T11:09:19.623Z,98939.99
2018-12-27T11:11:51.844Z,98935.11
2018-12-27T11:14:24.019Z,98928.42
2018-12-27T11:16:56.244Z,98927.69
2018-12-27T11:19:28.406Z,98924.91
2018-12-27T11:22:00.612Z,98922.20
2018-12-27T11:24:32.772Z,98920.02
2018-12-27T11:27:04.989Z,98914.56
2018-12-27T11:29:37.165Z,98909.45
2018-12-27T11:32:09.581Z,98904.17
2018-12-27T11:34:41.742Z,98902.20
2018-12-27T11:37:14.023Z,98896.63
2018-12-27T11:39:46.291Z,98899.61
2018-12-27T11:42:18.613Z,98896.34
2018-12-27T11:44:50.783Z,98898.03
2018-12-27T11:47:23.032Z,98893.34
2018-12-27T11:49:55.205Z,98897.37
2018-12-27T11:52:27.418Z,98895.80
2018-12-27T11:54:59.578Z,98897.34
2018-12-27T11:57:31.792Z,98893.95
2018-12-27T12:00:04.185Z,98897.16
2018-12-27T12:02:36.392Z,98885.08
2018-12-27T12:05:09.023Z,98881.32
2018-12-27T12:07:41.339Z,98878.17
2018-12-27T12:10:13.614Z,98866.05
2018-12-27T12:12:45.835Z,98852.14
2018-12-27T12:15:18.007Z,98841.84
2018-12-27T12:17:50.227Z,98840.19
2018-12-27T12:20:22.476Z,98842.36
2018-12-27T12:22:54.684Z,98839.12
2018-12-27T12:25:26.951Z,98837.98
2018-12-27T12:27:59.273Z,98833.66
2018-12-27T12:30:31.573Z,98827.09
2018-12-27T12:33:04.054Z,98818.38
2018-12-27T12:35:36.482Z,98809.63
2018-12-27T12:38:09.567Z,98799.45
2018-12-27T12:40:41.881Z,98797.80
2018-12-27T12:43:14.262Z,98799.55
2018-12-27T12:45:46.591Z,98800.39
2018-12-27T12:48:19.018Z,98801.42
2018-12-27T12:50:51.448Z,98801.77
2018-12-27T12:53:23.920Z,98797.70
2018-12-27T12:55:56.343Z,98790.59
2018-12-27T12:58:28.707Z,98779.53
2018-12-27T13:01:01.036Z,98778.42
2018-12-27T13:03:33.409Z,98775.38
2018-12-27T13:06:05.835Z,98770.14
2018-12-27T13:08:38.210Z,98775.11
2018-12-27T13:11:10.536Z,98782.45
2018-12-27T13:13:42.985Z,98788.83
2018-12-27T13:16:15.341Z,98790.79
2018-12-27T13:18:47.915Z,98799.84
2018-12-27T13:21:20.232Z,98800.39
2018-12-27T13:23:52.604Z,98801.15
2018-12-27T13:26:24.929Z,98803.23
2018-12-27T13:28:57.303Z,98804.75
2018-12-27T13:31:29.629Z,98808.35
2018-12-27T13:34:01.875Z,98809.49
2018-12-27T13:36:34.042Z,98809.61
2018-12-27T13:39:08.237Z,98806.41
2018-12-27T13:41:40.452Z,98803.87
2018-12-27T13:44:12.850Z,98797.98
2018-12-27T13:46:45.011Z,98790.69
2018-12-27T13:49:17.330Z,98787.63
2018-12-27T13:51:49.497Z,98781.16
2018-12-27T13:54:21.709Z,98778.17
2018-12-27T13:56:54.054Z,98775.05
2018-12-27T13:59:26.363Z,98778.01
2018-12-27T14:01:58.529Z,98774.80
2018-12-27T14:04:30.736Z,98772.03
2018-12-27T14:07:03.070Z,98779.56
2018-12-27T14:09:35.393Z,98778.28
2018-12-27T14:12:07.554Z,98776.13
2018-12-27T14:14:39.764Z,98776.22
2018-12-27T14:17:12.012Z,98774.92
2018-12-27T14:19:44.328Z,98772.24
2018-12-27T14:22:16.490Z,98770.06
2018-12-27T14:24:48.693Z,98778.73
2018-12-27T14:27:20.851Z,98779.72
2018-12-27T14:29:53.055Z,98782.17
2018-12-27T14:32:25.221Z,98782.56
2018-12-27T14:34:57.442Z,98776.66
2018-12-27T14:37:29.610Z,98775.18
2018-12-27T14:40:01.831Z,98774.95
2018-12-27T14:42:34.142Z,98776.03
2018-12-27T14:45:06.854Z,98779.64
2018-12-27T14:47:39.059Z,98776.55
2018-12-27T14:50:11.570Z,98777.64
2018-12-27T14:52:43.830Z,98775.69
2018-12-27T14:55:16.134Z,98777.86
2018-12-27T14:57:48.297Z,98767.77
2018-12-27T15:00:20.700Z,98767.45
2018-12-27T15:02:52.865Z,98770.12
2018-12-27T15:05:25.071Z,98775.45
2018-12-27T15:07:57.245Z,98775.81
2018-12-27T15:10:29.584Z,98777.67
2018-12-27T15:13:01.740Z,98777.17
2018-12-27T15:15:34.045Z,98778.86
2018-12-27T15:18:06.204Z,98781.61
2018-12-27T15:20:38.416Z,98782.27
2018-12-27T15:23:10.650Z,98779.28
2018-12-27T15:25:42.864Z,98774.51
2018-12-27T15:28:15.124Z,98780.26
2018-12-27T15:30:47.327Z,98776.27
2018-12-27T15:33:19.484Z,98775.54
2018-12-27T15:35:51.691Z,98777.06
2018-12-27T15:38:23.850Z,98773.98
2018-12-27T15:40:56.065Z,98766.39
2018-12-27T15:43:28.326Z,98771.92
2018-12-27T15:46:00.541Z,98772.41
2018-12-27T15:48:32.848Z,98769.67
2018-12-27T15:51:05.054Z,98766.20
2018-12-27T15:53:37.242Z,98766.09
2018-12-27T15:56:09.456Z,98766.97
2018-12-27T15:58:41.672Z,98773.42
2018-12-27T16:01:13.911Z,98777.39
2018-12-27T16:03:46.068Z,98778.12
2018-12-27T16:06:18.285Z,98779.83
2018-12-27T16:08:50.454Z,98777.12
2018-12-27T16:11:22.659Z,98777.91
2018-12-27T16:13:54.819Z,98781.06
2018-12-27T16:16:27.132Z,98783.55
2018-12-27T16:18:59.294Z,98785.35
2018-12-27T16:21:31.501Z,98782.03
2018-12-27T16:24:03.855Z,98794.66
2018-12-27T16:26:36.069Z,98793.42
2018-12-27T16:29:08.338Z,98792.46
2018-12-27T16:31:40.553Z,98793.78
2018-12-27T16:34:12.721Z,98791.91
2018-12-27T16:36:45.036Z,98799.83
2018-12-27T16:39:17.208Z,98800.36
2018-12-27T16:41:49.856Z,98804.02
2018-12-27T16:44:22.071Z,98800.52
2018-12-27T16:46:54.384Z,98800.77
2018-12-27T16:49:26.548Z,98804.61
2018-12-27T16:51:59.064Z,98805.09
2018-12-27T16:54:31.222Z,98802.84
2018-12-27T16:57:03.431Z,98809.17
2018-12-27T16:59:35.587Z,98804.66
2018-12-27T17:02:07.893Z,98804.84
2018-12-27T17:04:40.067Z,98799.27
2018-12-27T17:07:16.026Z,98798.98
2018-12-27T17:09:46.254Z,98801.33
2018-12-27T17:12:18.647Z,98804.13
2018-12-27T17:14:50.809Z,98797.88
2018-12-27T17:17:23.018Z,98794.64
2018-12-27T17:19:55.321Z,98793.00
2018-12-27T17:22:27.694Z,98795.66
2018-12-27T17:24:59.886Z,98808.03
2018-12-27T17:27:35.244Z,98800.53
2018-12-27T17:30:08.193Z,98801.00
2018-12-27T17:32:40.548Z,98800.50
2018-12-27T17:35:13.075Z,98795.67
2018-12-27T17:37:45.445Z,98795.98
2018-12-27T17:40:17.645Z,98795.34
2018-12-27T17:42:49.901Z,98801.08
2018-12-27T17:45:22.071Z,98803.75
2018-12-27T17:47:54.279Z,98808.77
2018-12-27T17:50:26.441Z,98802.99
2018-12-27T17:52:58.657Z,98804.40
2018-12-27T17:55:30.823Z,98806.25
2018-12-27T17:58:03.035Z,98808.21
2018-12-27T18:00:35.197Z,98804.13
2018-12-27T18:03:07.404Z,98799.51
2018-12-27T18:05:39.578Z,98798.52
2018-12-27T18:08:11.797Z,98797.86
2018-12-27T18:10:44.097Z,98796.31
2018-12-27T18:13:16.471Z,98799.55
2018-12-27T18:15:48.788Z,98795.58
2018-12-27T18:18:21.041Z,98796.92
2018-12-27T18:20:53.202Z,98793.85
2018-12-27T18:23:25.427Z,98789.98
2018-12-27T18:25:57.719Z,98789.91
2018-12-27T18:28:29.952Z,98793.48
2018-12-27T18:31:02.121Z,98795.36
2018-12-27T18:33:34.436Z,98788.00
2018-12-27T18:36:06.606Z,98793.91
2018-12-27T18:38:38.925Z,98794.30
2018-12-27T18:41:11.091Z,98792.45
2018-12-27T18:43:43.356Z,98792.45
2018-12-27T18:46:16.469Z,98797.27
2018-12-27T18:48:48.700Z,98798.73
2018-12-27T18:51:20.867Z,98796.91
2018-12-27T18:53:53.172Z,98799.17
2018-12-27T18:56:25.337Z,98801.82
2018-12-27T18:58:57.545Z,98799.41
2018-12-27T19:01:29.733Z,98798.34
2018-12-27T19:04:02.077Z,98799.91
2018-12-27T19:06:34.438Z,98815.73
2018-12-27T19:09:08.901Z,98812.24
2018-12-27T19:12:33.970Z,98809.63
2018-12-27T19:15:12.171Z,98813.80
2018-12-27T19:18:14.577Z,98818.81
2018-12-27T19:20:53.117Z,98823.11
2018-12-27T19:23:26.045Z,98822.55
2018-12-27T19:25:58.416Z,98829.21
2018-12-27T19:28:30.736Z,98835.78
2018-12-27T19:31:03.217Z,98844.09
2018-12-27T19:33:35.539Z,98838.97
2018-12-27T19:36:07.783Z,98837.93
2018-12-27T19:38:40.079Z,98834.63
2018-12-27T19:41:12.523Z,98839.34
2018-12-27T19:43:44.874Z,98835.97
2018-12-27T19:46:17.339Z,98836.94
2018-12-27T19:48:49.663Z,98833.64
2018-12-27T19:51:22.030Z,98835.08
2018-12-27T19:53:54.353Z,98832.05
2018-12-27T19:56:26.695Z,98830.38
2018-12-27T19:58:58.991Z,98830.81
2018-12-27T20:01:31.460Z,98825.61
2018-12-27T20:04:03.746Z,98827.95
2018-12-27T20:06:36.101Z,98824.78
2018-12-27T20:09:09.645Z,98821.13
2018-12-27T20:11:41.899Z,98817.20
2018-12-27T20:14:15.373Z,98814.69
2018-12-27T20:16:47.765Z,98815.23
2018-12-27T20:19:20.025Z,98812.79
2018-12-27T20:21:52.245Z,98817.23
2018-12-27T20:24:24.411Z,98806.14
2018-12-27T20:26:56.624Z,98807.95
2018-12-27T20:29:28.865Z,98803.70
2018-12-27T20:32:01.083Z,98805.15
2018-12-27T20:34:33.254Z,98802.23
2018-12-27T20:37:05.473Z,98800.70
2018-12-27T20:39:37.637Z,98798.82
2018-12-27T20:42:09.894Z,98805.89
2018-12-27T20:44:42.466Z,98806.64
2018-12-27T20:47:14.842Z,98800.86
2018-12-27T20:49:47.167Z,98805.41
2018-12-27T20:52:19.410Z,98807.11
2018-12-27T20:54:51.574Z,98811.56
2018-12-27T20:57:23.894Z,98813.16
2018-12-27T20:59:56.191Z,98814.97
2018-12-27T21:02:28.567Z,98812.11
2018-12-27T21:05:00.883Z,98809.66
2018-12-27T21:07:33.225Z,98811.78
2018-12-27T21:10:05.572Z,98821.98
2018-12-27T21:12:37.915Z,98828.05
2018-12-27T21:15:10.445Z,98829.86
2018-12-27T21:17:42.819Z,98825.23
2018-12-27T21:20:15.114Z,98822.63
2018-12-27T21:22:47.342Z,98826.73
2018-12-27T21:25:19.511Z,98817.64
2018-12-27T21:27:51.825Z,98816.39
2018-12-27T21:30:24.061Z,98808.03
2018-12-27T21:32:56.275Z,98804.25
2018-12-27T21:35:28.450Z,98802.93
2018-12-27T21:38:00.661Z,98806.25
2018-12-27T21:40:32.826Z,98813.34
2018-12-27T21:43:05.514Z,98812.23
2018-12-27T21:45:37.969Z,98806.67
2018-12-27T21:48:10.334Z,98817.34
2018-12-27T21:50:42.638Z,98811.53
2018-12-27T21:53:14.875Z,98816.06
2018-12-27T21:55:47.273Z,98819.95
2018-12-27T21:58:19.582Z,98821.92
2018-12-27T22:00:51.763Z,98821.48
2018-12-27T22:03:24.100Z,98819.52
2018-12-27T22:05:56.294Z,98819.09
2018-12-27T22:08:28.772Z,98823.50
2018-12-27T22:11:01.183Z,98815.58
2018-12-27T22:13:33.492Z,98813.63
2018-12-27T22:16:05.792Z,98816.38
2018-12-27T22:18:38.210Z,98818.56
2018-12-27T22:21:10.509Z,98822.08
2018-12-27T22:23:42.836Z,98823.66
2018-12-27T22:26:15.011Z,98820.94
2018-12-27T22:28:47.360Z,98820.31
2018-12-27T22:31:19.783Z,98811.05
2018-12-27T22:33:52.154Z,98802.59
2018-12-27T22:36:24.484Z,98799.95
2018-12-27T22:38:56.845Z,98807.70
2018-12-27T22:41:29.038Z,98803.11
2018-12-27T22:44:01.354Z,98806.33
2018-12-27T22:46:33.519Z,98806.48
2018-12-27T22:49:05.883Z,98808.23
2018-12-27T22:51:38.154Z,98804.53
2018-12-27T22:54:10.372Z,98807.04
2018-12-27T22:56:42.541Z,98807.02
2018-12-27T22:59:14.754Z,98816.67
2018-12-27T23:01:47.144Z,98824.91
2018-12-27T23:04:19.386Z,98814.08
2018-12-27T23:06:51.694Z,98813.36
2018-12-27T23:09:24.042Z,98816.06
2018-12-27T23:11:56.343Z,98805.06
2018-12-27T23:14:28.811Z,98790.56
2018-12-27T23:17:01.237Z,98797.56
2018-12-27T23:19:33.613Z,98792.94
2018-12-27T23:22:05.930Z,98796.12
2018-12-27T23:24:38.314Z,98803.53
2018-12-27T23:27:10.650Z,98803.95
2018-12-27T23:29:42.864Z,98818.05
2018-12-27T23:32:15.211Z,98807.31
2018-12-27T23:34:47.457Z,98806.00
2018-12-27T23:37:19.671Z,98802.84
2018-12-27T23:39:52.013Z,98798.31
2018-12-27T23:42:24.377Z,98807.50
2018-12-27T23:44:56.542Z,98814.36
2018-12-27T23:47:28.772Z,98809.03
2018-12-27T23:50:00.939Z,98808.67
2018-12-27T23:52:33.161Z,98800.55
2018-12-27T23:58:36.131Z,98794.13
